sensor_id;sensor_type;location;lat;lon;timestamp;P1;durP1;ratioP1;P2;durP2;ratioP2
25525;SDS011;13424;48.424;11.258;2022-09-16T00:02:08;15.18;;;11.48;;
25525;SDS011;13424;48.424;11.258;2022-09-16T00:04:34;14.88;;;11.30;;
25525;SDS011;13424;48.424;11.258;2022-09-16T00:07:00;15.15;;;12.07;;
25525;SDS011;13424;48.424;11.258;2022-09-16T00:09:27;15.65;;;12.20;;
25525;SDS011;13424;48.424;11.258;2022-09-16T00:11:53;15.63;;;11.98;;
25525;SDS011;13424;48.424;11.258;2022-09-16T00:14:19;15.30;;;11.27;;
25525;SDS011;13424;48.424;11.258;2022-09-16T00:16:45;15.35;;;11.30;;
25525;SDS011;13424;48.424;11.258;2022-09-16T00:19:11;16.35;;;11.25;;
25525;SDS011;13424;48.424;11.258;2022-09-16T00:21:37;14.15;;;10.25;;
25525;SDS011;13424;48.424;11.258;2022-09-16T00:24:03;16.15;;;11.18;;
25525;SDS011;13424;48.424;11.258;2022-09-16T00:26:29;13.30;;;11.20;;
25525;SDS011;13424;48.424;11.258;2022-09-16T00:32:57;15.68;;;10.45;;
25525;SDS011;13424;48.424;11.258;2022-09-16T00:35:23;19.02;;;12.85;;
25525;SDS011;13424;48.424;11.258;2022-09-16T00:37:49;15.25;;;12.88;;
25525;SDS011;13424;48.424;11.258;2022-09-16T00:40:15;18.88;;;13.23;;
25525;SDS011;13424;48.424;11.258;2022-09-16T00:42:41;23.08;;;14.60;;
25525;SDS011;13424;48.424;11.258;2022-09-16T00:45:16;17.65;;;11.27;;
25525;SDS011;13424;48.424;11.258;2022-09-16T00:47:51;14.00;;;12.00;;
25525;SDS011;13424;48.424;11.258;2022-09-16T00:50:44;20.08;;;14.27;;
25525;SDS011;13424;48.424;11.258;2022-09-16T00:53:27;17.50;;;12.70;;
25525;SDS011;13424;48.424;11.258;2022-09-16T00:55:59;15.60;;;12.40;;
25525;SDS011;13424;48.424;11.258;2022-09-16T01:01:14;19.83;;;14.45;;
25525;SDS011;13424;48.424;11.258;2022-09-16T01:03:45;20.38;;;13.85;;
25525;SDS011;13424;48.424;11.258;2022-09-16T01:06:18;22.10;;;15.88;;
25525;SDS011;13424;48.424;11.258;2022-09-16T01:08:45;22.45;;;15.20;;
25525;SDS011;13424;48.424;11.258;2022-09-16T01:11:14;19.30;;;14.38;;
25525;SDS011;13424;48.424;11.258;2022-09-16T01:13:50;19.27;;;15.00;;
25525;SDS011;13424;48.424;11.258;2022-09-16T01:16:33;20.05;;;15.20;;
25525;SDS011;13424;48.424;11.258;2022-09-16T01:22:22;17.70;;;15.05;;
25525;SDS011;13424;48.424;11.258;2022-09-16T01:31:55;19.20;;;13.75;;
25525;SDS011;13424;48.424;11.258;2022-09-16T01:41:49;19.60;;;13.52;;
25525;SDS011;13424;48.424;11.258;2022-09-16T01:44:40;20.65;;;14.38;;
25525;SDS011;13424;48.424;11.258;2022-09-16T01:47:28;18.35;;;13.25;;
25525;SDS011;13424;48.424;11.258;2022-09-16T01:50:18;19.08;;;14.82;;
25525;SDS011;13424;48.424;11.258;2022-09-16T01:53:16;18.00;;;13.35;;
25525;SDS011;13424;48.424;11.258;2022-09-16T01:56:02;20.13;;;15.15;;
25525;SDS011;13424;48.424;11.258;2022-09-16T01:58:56;16.50;;;13.27;;
25525;SDS011;13424;48.424;11.258;2022-09-16T02:01:48;18.17;;;12.82;;
25525;SDS011;13424;48.424;11.258;2022-09-16T02:04:43;19.95;;;13.38;;
25525;SDS011;13424;48.424;11.258;2022-09-16T02:07:20;20.20;;;14.75;;
25525;SDS011;13424;48.424;11.258;2022-09-16T02:09:55;20.80;;;13.30;;
25525;SDS011;13424;48.424;11.258;2022-09-16T02:12:27;20.00;;;14.80;;
25525;SDS011;13424;48.424;11.258;2022-09-16T02:15:04;25.25;;;15.10;;
25525;SDS011;13424;48.424;11.258;2022-09-16T02:17:38;17.02;;;14.25;;
25525;SDS011;13424;48.424;11.258;2022-09-16T02:20:16;19.13;;;15.27;;
25525;SDS011;13424;48.424;11.258;2022-09-16T02:22:52;20.27;;;15.30;;
25525;SDS011;13424;48.424;11.258;2022-09-16T02:25:27;18.70;;;14.63;;
25525;SDS011;13424;48.424;11.258;2022-09-16T02:27:59;21.00;;;15.65;;
25525;SDS011;13424;48.424;11.258;2022-09-16T02:30:30;18.67;;;14.18;;
25525;SDS011;13424;48.424;11.258;2022-09-16T02:33:01;19.20;;;15.60;;
25525;SDS011;13424;48.424;11.258;2022-09-16T02:35:33;23.25;;;15.25;;
25525;SDS011;13424;48.424;11.258;2022-09-16T02:38:13;19.45;;;15.35;;
25525;SDS011;13424;48.424;11.258;2022-09-16T02:40:55;19.33;;;14.65;;
25525;SDS011;13424;48.424;11.258;2022-09-16T02:43:25;19.88;;;15.77;;
25525;SDS011;13424;48.424;11.258;2022-09-16T02:55:29;22.00;;;15.25;;
25525;SDS011;13424;48.424;11.258;2022-09-16T02:58:22;19.88;;;15.30;;
25525;SDS011;13424;48.424;11.258;2022-09-16T03:00:50;20.73;;;16.05;;
25525;SDS011;13424;48.424;11.258;2022-09-16T03:06:28;20.17;;;14.70;;
25525;SDS011;13424;48.424;11.258;2022-09-16T03:08:58;16.42;;;13.57;;
25525;SDS011;13424;48.424;11.258;2022-09-16T03:31:00;22.70;;;14.70;;
25525;SDS011;13424;48.424;11.258;2022-09-16T03:36:31;23.77;;;14.90;;
25525;SDS011;13424;48.424;11.258;2022-09-16T03:39:15;21.08;;;13.45;;
25525;SDS011;13424;48.424;11.258;2022-09-16T03:41:42;17.88;;;14.73;;
25525;SDS011;13424;48.424;11.258;2022-09-16T03:44:09;21.17;;;13.18;;
25525;SDS011;13424;48.424;11.258;2022-09-16T03:46:44;20.23;;;13.98;;
25525;SDS011;13424;48.424;11.258;2022-09-16T03:49:10;19.10;;;14.27;;
25525;SDS011;13424;48.424;11.258;2022-09-16T03:51:36;21.27;;;15.10;;
25525;SDS011;13424;48.424;11.258;2022-09-16T03:54:02;18.55;;;14.48;;
25525;SDS011;13424;48.424;11.258;2022-09-16T03:56:29;18.00;;;13.23;;
25525;SDS011;13424;48.424;11.258;2022-09-16T03:58:55;19.90;;;13.88;;
25525;SDS011;13424;48.424;11.258;2022-09-16T04:01:21;18.92;;;13.15;;
25525;SDS011;13424;48.424;11.258;2022-09-16T04:03:46;17.45;;;14.10;;
25525;SDS011;13424;48.424;11.258;2022-09-16T04:06:18;16.95;;;13.73;;
25525;SDS011;13424;48.424;11.258;2022-09-16T04:08:44;20.92;;;13.77;;
25525;SDS011;13424;48.424;11.258;2022-09-16T04:11:14;18.27;;;12.93;;
25525;SDS011;13424;48.424;11.258;2022-09-16T04:13:40;19.30;;;14.50;;
25525;SDS011;13424;48.424;11.258;2022-09-16T04:16:06;20.65;;;15.25;;
25525;SDS011;13424;48.424;11.258;2022-09-16T04:18:32;18.88;;;14.25;;
25525;SDS011;13424;48.424;11.258;2022-09-16T04:21:04;20.77;;;14.43;;
25525;SDS011;13424;48.424;11.258;2022-09-16T04:23:30;20.98;;;15.15;;
25525;SDS011;13424;48.424;11.258;2022-09-16T04:25:58;23.48;;;14.38;;
25525;SDS011;13424;48.424;11.258;2022-09-16T04:28:27;20.88;;;14.65;;
25525;SDS011;13424;48.424;11.258;2022-09-16T04:31:14;20.38;;;13.95;;
25525;SDS011;13424;48.424;11.258;2022-09-16T04:33:41;25.80;;;15.10;;
25525;SDS011;13424;48.424;11.258;2022-09-16T04:36:11;19.38;;;14.07;;
25525;SDS011;13424;48.424;11.258;2022-09-16T04:38:44;19.88;;;14.68;;
25525;SDS011;13424;48.424;11.258;2022-09-16T04:41:14;20.77;;;14.00;;
25525;SDS011;13424;48.424;11.258;2022-09-16T04:46:12;19.45;;;13.45;;
25525;SDS011;13424;48.424;11.258;2022-09-16T04:48:38;18.73;;;13.00;;
25525;SDS011;13424;48.424;11.258;2022-09-16T04:51:09;19.08;;;13.70;;
25525;SDS011;13424;48.424;11.258;2022-09-16T04:53:37;22.98;;;14.23;;
25525;SDS011;13424;48.424;11.258;2022-09-16T04:56:16;19.88;;;13.05;;
25525;SDS011;13424;48.424;11.258;2022-09-16T05:05:32;18.13;;;12.90;;
25525;SDS011;13424;48.424;11.258;2022-09-16T05:07:58;19.60;;;13.77;;
25525;SDS011;13424;48.424;11.258;2022-09-16T05:10:24;18.70;;;13.00;;
25525;SDS011;13424;48.424;11.258;2022-09-16T05:12:51;19.88;;;13.48;;
25525;SDS011;13424;48.424;11.258;2022-09-16T05:15:18;16.35;;;13.25;;
25525;SDS011;13424;48.424;11.258;2022-09-16T05:17:45;20.88;;;13.98;;
25525;SDS011;13424;48.424;11.258;2022-09-16T05:20:11;18.55;;;13.45;;
25525;SDS011;13424;48.424;11.258;2022-09-16T05:22:38;18.90;;;12.93;;
25525;SDS011;13424;48.424;11.258;2022-09-16T05:25:04;22.63;;;14.32;;
25525;SDS011;13424;48.424;11.258;2022-09-16T05:27:31;19.70;;;14.23;;
25525;SDS011;13424;48.424;11.258;2022-09-16T05:29:58;22.65;;;14.30;;
25525;SDS011;13424;48.424;11.258;2022-09-16T05:32:33;23.60;;;15.55;;
25525;SDS011;13424;48.424;11.258;2022-09-16T05:34:59;22.35;;;15.18;;
25525;SDS011;13424;48.424;11.258;2022-09-16T05:37:25;19.35;;;13.00;;
25525;SDS011;13424;48.424;11.258;2022-09-16T05:39:51;19.73;;;13.15;;
25525;SDS011;13424;48.424;11.258;2022-09-16T05:42:17;24.90;;;14.45;;
25525;SDS011;13424;48.424;11.258;2022-09-16T05:44:43;17.58;;;13.30;;
25525;SDS011;13424;48.424;11.258;2022-09-16T05:47:09;22.05;;;14.93;;
25525;SDS011;13424;48.424;11.258;2022-09-16T05:49:35;20.77;;;13.75;;
25525;SDS011;13424;48.424;11.258;2022-09-16T05:55:29;18.63;;;13.93;;
25525;SDS011;13424;48.424;11.258;2022-09-16T05:57:55;21.52;;;14.82;;
25525;SDS011;13424;48.424;11.258;2022-09-16T06:00:21;21.42;;;15.60;;
25525;SDS011;13424;48.424;11.258;2022-09-16T06:02:47;16.67;;;13.77;;
25525;SDS011;13424;48.424;11.258;2022-09-16T06:05:14;20.55;;;15.88;;
25525;SDS011;13424;48.424;11.258;2022-09-16T06:07:40;23.33;;;15.95;;
25525;SDS011;13424;48.424;11.258;2022-09-16T06:10:06;19.20;;;14.90;;
25525;SDS011;13424;48.424;11.258;2022-09-16T06:12:33;21.23;;;14.80;;
25525;SDS011;13424;48.424;11.258;2022-09-16T06:14:59;21.33;;;14.65;;
25525;SDS011;13424;48.424;11.258;2022-09-16T06:17:26;20.52;;;15.85;;
25525;SDS011;13424;48.424;11.258;2022-09-16T06:23:26;25.27;;;14.20;;
25525;SDS011;13424;48.424;11.258;2022-09-16T06:26:05;19.20;;;13.02;;
25525;SDS011;13424;48.424;11.258;2022-09-16T06:28:35;18.38;;;14.68;;
25525;SDS011;13424;48.424;11.258;2022-09-16T06:31:07;23.27;;;14.98;;
25525;SDS011;13424;48.424;11.258;2022-09-16T06:33:37;22.15;;;14.27;;
25525;SDS011;13424;48.424;11.258;2022-09-16T06:36:05;24.75;;;15.65;;
25525;SDS011;13424;48.424;11.258;2022-09-16T06:38:37;19.58;;;15.25;;
25525;SDS011;13424;48.424;11.258;2022-09-16T06:41:16;22.33;;;15.05;;
25525;SDS011;13424;48.424;11.258;2022-09-16T06:43:44;22.00;;;15.25;;
25525;SDS011;13424;48.424;11.258;2022-09-16T06:46:17;21.77;;;13.98;;
25525;SDS011;13424;48.424;11.258;2022-09-16T06:48:50;21.67;;;15.40;;
25525;SDS011;13424;48.424;11.258;2022-09-16T06:51:22;23.38;;;14.30;;
25525;SDS011;13424;48.424;11.258;2022-09-16T06:53:57;20.70;;;15.18;;
25525;SDS011;13424;48.424;11.258;2022-09-16T06:56:26;24.60;;;16.75;;
25525;SDS011;13424;48.424;11.258;2022-09-16T06:58:52;20.98;;;14.77;;
25525;SDS011;13424;48.424;11.258;2022-09-16T07:01:32;19.02;;;15.15;;
25525;SDS011;13424;48.424;11.258;2022-09-16T07:04:04;20.65;;;15.85;;
25525;SDS011;13424;48.424;11.258;2022-09-16T07:06:35;21.80;;;15.52;;
25525;SDS011;13424;48.424;11.258;2022-09-16T07:09:01;20.13;;;15.20;;
25525;SDS011;13424;48.424;11.258;2022-09-16T07:11:28;21.67;;;15.63;;
25525;SDS011;13424;48.424;11.258;2022-09-16T07:13:57;21.23;;;14.88;;
25525;SDS011;13424;48.424;11.258;2022-09-16T07:16:25;23.10;;;15.18;;
25525;SDS011;13424;48.424;11.258;2022-09-16T07:18:55;21.70;;;16.50;;
25525;SDS011;13424;48.424;11.258;2022-09-16T07:21:34;21.92;;;15.48;;
25525;SDS011;13424;48.424;11.258;2022-09-16T07:24:01;20.75;;;15.85;;
25525;SDS011;13424;48.424;11.258;2022-09-16T07:26:30;25.77;;;16.50;;
25525;SDS011;13424;48.424;11.258;2022-09-16T07:28:59;23.73;;;15.98;;
25525;SDS011;13424;48.424;11.258;2022-09-16T07:31:30;23.95;;;15.98;;
25525;SDS011;13424;48.424;11.258;2022-09-16T07:33:59;26.10;;;16.67;;
25525;SDS011;13424;48.424;11.258;2022-09-16T07:36:28;25.67;;;16.58;;
25525;SDS011;13424;48.424;11.258;2022-09-16T07:39:07;23.20;;;16.00;;
25525;SDS011;13424;48.424;11.258;2022-09-16T07:41:35;22.30;;;15.50;;
25525;SDS011;13424;48.424;11.258;2022-09-16T07:44:05;22.92;;;17.02;;
25525;SDS011;13424;48.424;11.258;2022-09-16T07:46:34;27.60;;;16.75;;
25525;SDS011;13424;48.424;11.258;2022-09-16T07:53:27;23.98;;;15.90;;
25525;SDS011;13424;48.424;11.258;2022-09-16T07:55:55;23.95;;;16.60;;
25525;SDS011;13424;48.424;11.258;2022-09-16T07:58:25;23.65;;;15.90;;
25525;SDS011;13424;48.424;11.258;2022-09-16T08:00:51;26.70;;;17.17;;
25525;SDS011;13424;48.424;11.258;2022-09-16T08:03:17;24.40;;;16.38;;
25525;SDS011;13424;48.424;11.258;2022-09-16T08:05:43;27.10;;;16.80;;
25525;SDS011;13424;48.424;11.258;2022-09-16T08:08:09;21.77;;;16.15;;
25525;SDS011;13424;48.424;11.258;2022-09-16T08:10:35;23.45;;;15.70;;
25525;SDS011;13424;48.424;11.258;2022-09-16T08:13:03;23.95;;;16.17;;
25525;SDS011;13424;48.424;11.258;2022-09-16T08:15:31;19.45;;;14.85;;
25525;SDS011;13424;48.424;11.258;2022-09-16T08:17:56;23.55;;;15.02;;
25525;SDS011;13424;48.424;11.258;2022-09-16T08:20:23;21.42;;;15.07;;
25525;SDS011;13424;48.424;11.258;2022-09-16T08:22:50;18.88;;;15.20;;
25525;SDS011;13424;48.424;11.258;2022-09-16T08:25:16;24.00;;;15.25;;
25525;SDS011;13424;48.424;11.258;2022-09-16T08:27:43;21.13;;;15.02;;
25525;SDS011;13424;48.424;11.258;2022-09-16T08:30:10;21.45;;;15.85;;
25525;SDS011;13424;48.424;11.258;2022-09-16T08:32:36;27.63;;;15.63;;
25525;SDS011;13424;48.424;11.258;2022-09-16T08:35:02;20.40;;;15.98;;
25525;SDS011;13424;48.424;11.258;2022-09-16T08:37:28;19.30;;;15.20;;
25525;SDS011;13424;48.424;11.258;2022-09-16T08:39:54;21.48;;;15.32;;
25525;SDS011;13424;48.424;11.258;2022-09-16T08:42:28;21.63;;;15.15;;
25525;SDS011;13424;48.424;11.258;2022-09-16T08:45:26;17.90;;;14.27;;
25525;SDS011;13424;48.424;11.258;2022-09-16T08:48:42;21.90;;;14.15;;
25525;SDS011;13424;48.424;11.258;2022-09-16T08:51:40;19.23;;;12.52;;
25525;SDS011;13424;48.424;11.258;2022-09-16T08:54:14;25.50;;;13.27;;
25525;SDS011;13424;48.424;11.258;2022-09-16T09:00:41;12.55;;;9.57;;
25525;SDS011;13424;48.424;11.258;2022-09-16T09:06:27;14.68;;;10.07;;
25525;SDS011;13424;48.424;11.258;2022-09-16T09:09:32;15.63;;;8.88;;
25525;SDS011;13424;48.424;11.258;2022-09-16T09:22:53;13.18;;;10.23;;
25525;SDS011;13424;48.424;11.258;2022-09-16T09:35:01;13.40;;;9.80;;
25525;SDS011;13424;48.424;11.258;2022-09-16T09:38:03;14.98;;;10.95;;
25525;SDS011;13424;48.424;11.258;2022-09-16T09:41:10;13.82;;;10.00;;
25525;SDS011;13424;48.424;11.258;2022-09-16T09:50:48;6.93;;;6.22;;
25525;SDS011;13424;48.424;11.258;2022-09-16T09:53:28;7.68;;;5.47;;
25525;SDS011;13424;48.424;11.258;2022-09-16T10:00:04;11.10;;;6.38;;
25525;SDS011;13424;48.424;11.258;2022-09-16T10:02:42;8.90;;;5.05;;
25525;SDS011;13424;48.424;11.258;2022-09-16T10:05:20;7.93;;;5.63;;
25525;SDS011;13424;48.424;11.258;2022-09-16T10:07:50;10.88;;;6.05;;
25525;SDS011;13424;48.424;11.258;2022-09-16T10:10:21;10.27;;;5.40;;
25525;SDS011;13424;48.424;11.258;2022-09-16T10:12:49;8.03;;;6.10;;
25525;SDS011;13424;48.424;11.258;2022-09-16T10:17:54;9.18;;;6.53;;
25525;SDS011;13424;48.424;11.258;2022-09-16T10:20:32;12.07;;;6.57;;
25525;SDS011;13424;48.424;11.258;2022-09-16T10:23:05;7.75;;;6.53;;
25525;SDS011;13424;48.424;11.258;2022-09-16T10:25:38;12.88;;;7.70;;
25525;SDS011;13424;48.424;11.258;2022-09-16T10:28:22;11.02;;;8.13;;
25525;SDS011;13424;48.424;11.258;2022-09-16T10:30:52;12.88;;;8.13;;
25525;SDS011;13424;48.424;11.258;2022-09-16T10:33:34;10.68;;;8.73;;
25525;SDS011;13424;48.424;11.258;2022-09-16T10:36:18;13.05;;;9.02;;
25525;SDS011;13424;48.424;11.258;2022-09-16T10:38:57;11.88;;;8.35;;
25525;SDS011;13424;48.424;11.258;2022-09-16T10:41:33;13.70;;;8.70;;
25525;SDS011;13424;48.424;11.258;2022-09-16T10:44:30;15.57;;;8.85;;
25525;SDS011;13424;48.424;11.258;2022-09-16T10:47:00;14.27;;;8.45;;
25525;SDS011;13424;48.424;11.258;2022-09-16T10:49:43;11.13;;;6.90;;
25525;SDS011;13424;48.424;11.258;2022-09-16T10:52:17;7.45;;;6.00;;
25525;SDS011;13424;48.424;11.258;2022-09-16T10:54:52;14.05;;;6.40;;
25525;SDS011;13424;48.424;11.258;2022-09-16T10:57:30;15.57;;;6.93;;
25525;SDS011;13424;48.424;11.258;2022-09-16T11:00:14;14.07;;;7.85;;
25525;SDS011;13424;48.424;11.258;2022-09-16T11:23:29;9.02;;;5.88;;
25525;SDS011;13424;48.424;11.258;2022-09-16T11:39:42;9.32;;;6.40;;
25525;SDS011;13424;48.424;11.258;2022-09-16T11:42:40;7.50;;;5.40;;
25525;SDS011;13424;48.424;11.258;2022-09-16T11:48:28;4.93;;;4.43;;
25525;SDS011;13424;48.424;11.258;2022-09-16T11:54:48;6.10;;;4.50;;
25525;SDS011;13424;48.424;11.258;2022-09-16T11:57:30;5.18;;;4.40;;
25525;SDS011;13424;48.424;11.258;2022-09-16T12:00:05;5.13;;;4.03;;
25525;SDS011;13424;48.424;11.258;2022-09-16T12:03:04;5.97;;;4.13;;
25525;SDS011;13424;48.424;11.258;2022-09-16T12:05:48;4.65;;;4.25;;
25525;SDS011;13424;48.424;11.258;2022-09-16T12:08:28;7.80;;;4.32;;
25525;SDS011;13424;48.424;11.258;2022-09-16T12:11:27;6.18;;;4.60;;
25525;SDS011;13424;48.424;11.258;2022-09-16T12:14:05;6.65;;;4.53;;
25525;SDS011;13424;48.424;11.258;2022-09-16T12:17:05;5.70;;;4.45;;
25525;SDS011;13424;48.424;11.258;2022-09-16T12:19:53;5.22;;;4.43;;
25525;SDS011;13424;48.424;11.258;2022-09-16T12:25:16;8.13;;;4.77;;
25525;SDS011;13424;48.424;11.258;2022-09-16T12:27:56;6.70;;;4.85;;
25525;SDS011;13424;48.424;11.258;2022-09-16T12:31:22;5.50;;;3.75;;
25525;SDS011;13424;48.424;11.258;2022-09-16T12:33:57;10.52;;;4.30;;
25525;SDS011;13424;48.424;11.258;2022-09-16T12:36:33;6.22;;;4.00;;
25525;SDS011;13424;48.424;11.258;2022-09-16T12:39:04;6.97;;;4.68;;
25525;SDS011;13424;48.424;11.258;2022-09-16T12:41:50;8.45;;;4.28;;
25525;SDS011;13424;48.424;11.258;2022-09-16T12:53:30;8.60;;;4.60;;
25525;SDS011;13424;48.424;11.258;2022-09-16T12:56:39;8.13;;;4.78;;
25525;SDS011;13424;48.424;11.258;2022-09-16T13:02:58;5.85;;;4.75;;
25525;SDS011;13424;48.424;11.258;2022-09-16T13:05:37;5.10;;;4.60;;
25525;SDS011;13424;48.424;11.258;2022-09-16T13:08:06;8.45;;;5.57;;
25525;SDS011;13424;48.424;11.258;2022-09-16T13:11:01;8.25;;;5.95;;
25525;SDS011;13424;48.424;11.258;2022-09-16T13:13:40;6.65;;;5.93;;
25525;SDS011;13424;48.424;11.258;2022-09-16T13:16:30;7.55;;;4.90;;
25525;SDS011;13424;48.424;11.258;2022-09-16T13:21:56;11.07;;;6.03;;
25525;SDS011;13424;48.424;11.258;2022-09-16T13:24:38;8.98;;;5.93;;
25525;SDS011;13424;48.424;11.258;2022-09-16T13:27:25;6.60;;;5.70;;
25525;SDS011;13424;48.424;11.258;2022-09-16T13:32:40;6.93;;;6.22;;
25525;SDS011;13424;48.424;11.258;2022-09-16T13:35:22;8.88;;;6.30;;
25525;SDS011;13424;48.424;11.258;2022-09-16T13:38:18;9.38;;;6.75;;
25525;SDS011;13424;48.424;11.258;2022-09-16T13:40:59;8.18;;;5.60;;
25525;SDS011;13424;48.424;11.258;2022-09-16T13:43:47;7.07;;;5.55;;
25525;SDS011;13424;48.424;11.258;2022-09-16T13:51:27;6.75;;;6.13;;
25525;SDS011;13424;48.424;11.258;2022-09-16T13:53:54;8.05;;;6.00;;
25525;SDS011;13424;48.424;11.258;2022-09-16T13:59:39;6.47;;;5.22;;
25525;SDS011;13424;48.424;11.258;2022-09-16T14:02:47;6.00;;;5.40;;
25525;SDS011;13424;48.424;11.258;2022-09-16T14:13:05;9.50;;;5.53;;
25525;SDS011;13424;48.424;11.258;2022-09-16T14:15:42;8.70;;;5.90;;
25525;SDS011;13424;48.424;11.258;2022-09-16T14:18:25;9.63;;;6.28;;
25525;SDS011;13424;48.424;11.258;2022-09-16T14:21:00;9.30;;;7.35;;
25525;SDS011;13424;48.424;11.258;2022-09-16T14:23:32;7.38;;;5.88;;
25525;SDS011;13424;48.424;11.258;2022-09-16T14:26:15;10.43;;;5.68;;
25525;SDS011;13424;48.424;11.258;2022-09-16T14:28:44;10.18;;;5.32;;
25525;SDS011;13424;48.424;11.258;2022-09-16T14:31:20;6.18;;;5.25;;
25525;SDS011;13424;48.424;11.258;2022-09-16T14:33:53;9.73;;;7.07;;
25525;SDS011;13424;48.424;11.258;2022-09-16T14:36:27;8.85;;;6.57;;
25525;SDS011;13424;48.424;11.258;2022-09-16T14:41:52;11.52;;;8.25;;
25525;SDS011;13424;48.424;11.258;2022-09-16T14:44:36;9.82;;;7.85;;
25525;SDS011;13424;48.424;11.258;2022-09-16T14:47:28;11.98;;;7.82;;
25525;SDS011;13424;48.424;11.258;2022-09-16T14:53:52;12.25;;;7.95;;
25525;SDS011;13424;48.424;11.258;2022-09-16T14:56:20;9.85;;;7.40;;
25525;SDS011;13424;48.424;11.258;2022-09-16T14:58:46;8.18;;;7.38;;
25525;SDS011;13424;48.424;11.258;2022-09-16T15:01:17;7.15;;;6.45;;
25525;SDS011;13424;48.424;11.258;2022-09-16T15:04:04;8.70;;;7.35;;
25525;SDS011;13424;48.424;11.258;2022-09-16T15:06:43;8.18;;;6.57;;
25525;SDS011;13424;48.424;11.258;2022-09-16T15:09:44;9.50;;;6.90;;
25525;SDS011;13424;48.424;11.258;2022-09-16T15:12:57;8.27;;;6.97;;
25525;SDS011;13424;48.424;11.258;2022-09-16T15:18:21;12.25;;;7.63;;
25525;SDS011;13424;48.424;11.258;2022-09-16T15:23:45;10.93;;;8.52;;
25525;SDS011;13424;48.424;11.258;2022-09-16T15:26:19;12.10;;;8.65;;
25525;SDS011;13424;48.424;11.258;2022-09-16T15:28:53;13.13;;;8.95;;
25525;SDS011;13424;48.424;11.258;2022-09-16T15:31:37;10.07;;;8.52;;
25525;SDS011;13424;48.424;11.258;2022-09-16T15:34:20;13.05;;;9.10;;
25525;SDS011;13424;48.424;11.258;2022-09-16T15:36:55;11.02;;;8.38;;
25525;SDS011;13424;48.424;11.258;2022-09-16T15:39:25;10.70;;;8.95;;
25525;SDS011;13424;48.424;11.258;2022-09-16T15:44:48;8.68;;;7.45;;
25525;SDS011;13424;48.424;11.258;2022-09-16T15:47:31;11.88;;;7.78;;
25525;SDS011;13424;48.424;11.258;2022-09-16T15:54:06;7.43;;;6.65;;
25525;SDS011;13424;48.424;11.258;2022-09-16T15:57:01;9.23;;;7.10;;
25525;SDS011;13424;48.424;11.258;2022-09-16T16:06:11;20.40;;;11.15;;
25525;SDS011;13424;48.424;11.258;2022-09-16T16:08:49;10.88;;;8.25;;
25525;SDS011;13424;48.424;11.258;2022-09-16T16:11:17;7.70;;;6.97;;
25525;SDS011;13424;48.424;11.258;2022-09-16T16:13:45;7.57;;;6.03;;
25525;SDS011;13424;48.424;11.258;2022-09-16T16:16:15;8.57;;;6.90;;
25525;SDS011;13424;48.424;11.258;2022-09-16T16:18:43;13.27;;;8.18;;
25525;SDS011;13424;48.424;11.258;2022-09-16T16:21:14;8.50;;;7.10;;
25525;SDS011;13424;48.424;11.258;2022-09-16T16:23:40;7.78;;;6.50;;
25525;SDS011;13424;48.424;11.258;2022-09-16T16:26:08;14.57;;;7.47;;
25525;SDS011;13424;48.424;11.258;2022-09-16T16:28:35;11.63;;;8.02;;
25525;SDS011;13424;48.424;11.258;2022-09-16T16:31:14;8.15;;;6.78;;
25525;SDS011;13424;48.424;11.258;2022-09-16T16:33:44;8.85;;;7.15;;
25525;SDS011;13424;48.424;11.258;2022-09-16T16:36:17;11.05;;;7.18;;
25525;SDS011;13424;48.424;11.258;2022-09-16T16:38:44;10.60;;;6.85;;
25525;SDS011;13424;48.424;11.258;2022-09-16T16:41:23;11.55;;;7.18;;
25525;SDS011;13424;48.424;11.258;2022-09-16T16:43:49;9.73;;;7.68;;
25525;SDS011;13424;48.424;11.258;2022-09-16T16:46:16;10.45;;;8.15;;
25525;SDS011;13424;48.424;11.258;2022-09-16T16:48:43;12.55;;;8.43;;
25525;SDS011;13424;48.424;11.258;2022-09-16T16:51:10;9.35;;;8.45;;
25525;SDS011;13424;48.424;11.258;2022-09-16T16:53:37;11.20;;;8.02;;
25525;SDS011;13424;48.424;11.258;2022-09-16T16:56:16;13.30;;;8.57;;
25525;SDS011;13424;48.424;11.258;2022-09-16T16:58:42;10.35;;;8.27;;
25525;SDS011;13424;48.424;11.258;2022-09-16T17:01:09;11.80;;;8.45;;
25525;SDS011;13424;48.424;11.258;2022-09-16T17:03:41;14.45;;;8.85;;
25525;SDS011;13424;48.424;11.258;2022-09-16T17:06:10;9.30;;;8.18;;
25525;SDS011;13424;48.424;11.258;2022-09-16T17:08:37;10.25;;;7.97;;
25525;SDS011;13424;48.424;11.258;2022-09-16T17:11:14;11.40;;;9.27;;
25525;SDS011;13424;48.424;11.258;2022-09-16T17:13:46;16.50;;;8.87;;
25525;SDS011;13424;48.424;11.258;2022-09-16T17:16:17;12.85;;;8.60;;
25525;SDS011;13424;48.424;11.258;2022-09-16T17:18:49;14.13;;;10.07;;
25525;SDS011;13424;48.424;11.258;2022-09-16T17:21:24;76.65;;;51.45;;
25525;SDS011;13424;48.424;11.258;2022-09-16T17:23:53;42.47;;;38.40;;
25525;SDS011;13424;48.424;11.258;2022-09-16T17:29:43;69.72;;;62.97;;
25525;SDS011;13424;48.424;11.258;2022-09-16T17:32:09;61.42;;;55.70;;
25525;SDS011;13424;48.424;11.258;2022-09-16T17:34:35;41.08;;;37.38;;
25525;SDS011;13424;48.424;11.258;2022-09-16T17:37:01;40.40;;;36.28;;
25525;SDS011;13424;48.424;11.258;2022-09-16T17:39:28;23.58;;;21.23;;
25525;SDS011;13424;48.424;11.258;2022-09-16T17:41:54;24.77;;;21.73;;
25525;SDS011;13424;48.424;11.258;2022-09-16T17:44:21;28.50;;;25.25;;
25525;SDS011;13424;48.424;11.258;2022-09-16T17:46:47;36.25;;;31.15;;
25525;SDS011;13424;48.424;11.258;2022-09-16T17:49:18;42.13;;;37.95;;
25525;SDS011;13424;48.424;11.258;2022-09-16T17:51:47;30.80;;;25.50;;
25525;SDS011;13424;48.424;11.258;2022-09-16T17:54:15;15.98;;;13.70;;
25525;SDS011;13424;48.424;11.258;2022-09-16T17:56:41;15.50;;;13.35;;
25525;SDS011;13424;48.424;11.258;2022-09-16T17:59:08;16.83;;;13.77;;
25525;SDS011;13424;48.424;11.258;2022-09-16T18:01:36;19.58;;;14.68;;
25525;SDS011;13424;48.424;11.258;2022-09-16T18:04:09;19.55;;;14.48;;
25525;SDS011;13424;48.424;11.258;2022-09-16T18:06:40;18.52;;;12.77;;
25525;SDS011;13424;48.424;11.258;2022-09-16T18:09:09;33.42;;;28.52;;
25525;SDS011;13424;48.424;11.258;2022-09-16T18:11:36;17.15;;;12.75;;
25525;SDS011;13424;48.424;11.258;2022-09-16T18:14:08;13.63;;;10.98;;
25525;SDS011;13424;48.424;11.258;2022-09-16T18:16:37;21.30;;;12.32;;
25525;SDS011;13424;48.424;11.258;2022-09-16T18:19:04;192.13;;;74.63;;
25525;SDS011;13424;48.424;11.258;2022-09-16T18:21:31;21.17;;;14.43;;
25525;SDS011;13424;48.424;11.258;2022-09-16T18:23:59;17.98;;;14.23;;
25525;SDS011;13424;48.424;11.258;2022-09-16T18:27:02;16.63;;;12.55;;
25525;SDS011;13424;48.424;11.258;2022-09-16T18:29:28;15.68;;;9.50;;
25525;SDS011;13424;48.424;11.258;2022-09-16T18:31:55;12.75;;;9.35;;
25525;SDS011;13424;48.424;11.258;2022-09-16T18:34:22;14.75;;;10.80;;
25525;SDS011;13424;48.424;11.258;2022-09-16T18:36:48;14.23;;;10.65;;
25525;SDS011;13424;48.424;11.258;2022-09-16T18:39:23;10.98;;;9.35;;
25525;SDS011;13424;48.424;11.258;2022-09-16T18:41:49;13.93;;;11.02;;
25525;SDS011;13424;48.424;11.258;2022-09-16T18:44:21;12.88;;;11.07;;